createdAt,value
2022-09-03T00:02:22.581Z,968.9
2022-09-03T00:07:54.938Z,969.4
2022-09-03T00:13:25.982Z,968.83
2022-09-03T00:18:57.630Z,969.22
2022-09-03T00:24:29.367Z,969.78
2022-09-03T00:30:01.162Z,970.09
2022-09-03T00:35:32.907Z,970.57
2022-09-03T00:41:04.482Z,970.96
2022-09-03T00:46:42.786Z,970.88
2022-09-03T00:52:14.422Z,970.84
2022-09-03T00:57:48.343Z,970.53
2022-09-03T01:03:17.963Z,970.8
2022-09-03T01:08:49.894Z,970.78
2022-09-03T01:14:21.298Z,970.77
2022-09-03T01:19:53.152Z,970.99
2022-09-03T01:25:24.755Z,971.01
2022-09-03T01:30:56.596Z,970.68
2022-09-03T01:36:28.160Z,970.84
2022-09-03T01:41:59.934Z,970.67
2022-09-03T01:47:36.030Z,970.94
2022-09-03T01:53:07.697Z,971.07
2022-09-03T01:58:39.433Z,971.07
2022-09-03T02:04:11.145Z,971.02
2022-09-03T02:09:42.898Z,971.22
2022-09-03T02:15:14.755Z,970.98
2022-09-03T02:20:46.403Z,971.04
2022-09-03T02:26:18.110Z,971.14
2022-09-03T02:31:49.834Z,971.63
2022-09-03T02:37:21.589Z,971.69
2022-09-03T02:42:53.295Z,971.63
2022-09-03T02:48:29.247Z,971.41
2022-09-03T02:54:01.022Z,971.09
2022-09-03T02:59:32.969Z,971.21
2022-09-03T03:05:04.483Z,971.17
2022-09-03T03:10:36.269Z,970.97
2022-09-03T03:16:08.162Z,970.75
2022-09-03T03:21:39.684Z,971.07
2022-09-03T03:27:11.362Z,971.34
2022-09-03T03:32:43.069Z,971.39
2022-09-03T03:38:14.821Z,971.39
2022-09-03T03:43:46.548Z,971.56
2022-09-03T03:49:22.697Z,971.66
2022-09-03T03:54:56.154Z,971.74
2022-09-03T04:00:26.059Z,972.04
2022-09-03T04:05:57.809Z,971.69
2022-09-03T04:11:29.586Z,971.83
2022-09-03T04:17:01.504Z,971.64
2022-09-03T04:22:32.951Z,972.06
2022-09-03T04:28:04.725Z,972.25
2022-09-03T04:33:36.498Z,972.29
2022-09-03T04:39:08.204Z,972.12
2022-09-03T04:44:39.837Z,972.21
2022-09-03T04:50:16.004Z,971.97
2022-09-03T04:55:47.693Z,972.11
2022-09-03T05:01:19.697Z,972.07
2022-09-03T05:06:51.093Z,972.75
2022-09-03T05:12:22.874Z,972.02
2022-09-03T05:17:54.634Z,972.78
2022-09-03T05:23:26.285Z,971.96
2022-09-03T05:28:58.071Z,972.78
2022-09-03T05:34:29.734Z,972.74
2022-09-03T05:40:01.759Z,972.72
2022-09-03T05:45:33.444Z,972.29
2022-09-03T05:51:09.303Z,973.33
2022-09-03T05:56:41.080Z,973.25
2022-09-03T06:02:14.411Z,973.24
2022-09-03T06:07:44.537Z,973.33
2022-09-03T06:13:16.330Z,973.88
2022-09-03T06:18:47.930Z,973.94
2022-09-03T06:24:21.381Z,973.95
2022-09-03T06:29:51.402Z,974.0
2022-09-03T06:35:23.102Z,974.21
2022-09-03T06:40:54.803Z,974.21
2022-09-03T06:46:26.527Z,974.6
2022-09-03T06:52:02.608Z,974.64
2022-09-03T06:57:34.362Z,974.61
2022-09-03T07:03:06.298Z,974.97
2022-09-03T07:08:37.806Z,975.24
2022-09-03T07:14:09.510Z,975.46
2022-09-03T07:19:41.258Z,975.02
2022-09-03T07:25:13.058Z,974.7
2022-09-03T07:30:44.756Z,975.65
2022-09-03T07:36:18.722Z,975.63
2022-09-03T07:41:48.150Z,975.44
2022-09-03T07:47:27.681Z,975.87
2022-09-03T07:52:56.406Z,976.11
2022-09-03T07:58:27.670Z,974.96
2022-09-03T08:03:59.558Z,976.23
2022-09-03T08:09:31.133Z,975.64
2022-09-03T08:15:02.845Z,976.24
2022-09-03T08:20:34.524Z,975.94
2022-09-03T08:26:06.316Z,976.98
2022-09-03T08:31:38.134Z,976.82
2022-09-03T08:37:09.728Z,975.79
2022-09-03T08:42:41.473Z,976.15
2022-09-03T08:48:13.171Z,975.42
2022-09-03T08:53:49.313Z,976.83
2022-09-03T08:59:21.257Z,976.78
2022-09-03T09:04:53.193Z,977.17
2022-09-03T09:10:24.417Z,976.94
2022-09-03T09:15:56.355Z,977.2
2022-09-03T09:21:28.591Z,977.51
2022-09-03T09:26:59.572Z,976.81
2022-09-03T09:32:31.250Z,977.75
2022-09-03T09:38:03.077Z,977.57
2022-09-03T09:43:34.837Z,976.46
2022-09-03T09:49:06.511Z,977.7
2022-09-03T09:54:44.637Z,977.29
2022-09-03T10:00:16.416Z,977.34
2022-09-03T10:05:48.025Z,977.79
2022-09-03T10:11:19.719Z,976.32
2022-09-03T10:16:51.589Z,977.76
2022-09-03T10:22:23.210Z,977.83
2022-09-03T10:27:55.014Z,977.64
2022-09-03T10:33:26.755Z,977.73
2022-09-03T10:38:58.455Z,978.11
2022-09-03T10:44:30.130Z,977.61
2022-09-03T10:50:01.822Z,977.86
2022-09-03T10:55:37.879Z,977.24
2022-09-03T11:01:09.811Z,977.36
2022-09-03T11:06:41.330Z,977.47
2022-09-03T11:12:13.086Z,977.62
2022-09-03T11:17:45.269Z,977.68
2022-09-03T11:23:16.501Z,976.53
2022-09-03T11:28:48.214Z,977.15
2022-09-03T11:34:33.455Z,977.07
2022-09-03T11:39:51.891Z,976.54
2022-09-03T11:45:23.402Z,976.13
2022-09-03T11:50:55.170Z,976.81
2022-09-03T11:56:31.161Z,976.48
2022-09-03T12:02:03.226Z,976.24
2022-09-03T12:07:34.796Z,975.97
2022-09-03T12:13:06.450Z,975.83
2022-09-03T12:18:38.122Z,976.15
2022-09-03T12:24:09.949Z,974.76
2022-09-03T12:29:41.659Z,975.59
2022-09-03T12:35:14.322Z,975.31
2022-09-03T12:41:27.795Z,975.2
2022-09-03T12:46:18.577Z,974.47
2022-09-03T12:51:58.960Z,973.64
2022-09-03T12:57:24.638Z,974.03
2022-09-03T13:02:56.397Z,974.81
2022-09-03T13:08:28.287Z,975.02
2022-09-03T13:13:59.883Z,974.81
2022-09-03T13:19:31.528Z,976.19
2022-09-03T13:25:03.325Z,975.47
2022-09-03T13:30:35.179Z,976.04
2022-09-03T13:36:06.689Z,976.61
2022-09-03T13:41:38.482Z,977.09
2022-09-03T13:47:10.188Z,977.13
2022-09-03T13:52:41.966Z,976.63
2022-09-03T13:58:18.095Z,976.97
2022-09-03T14:03:50.110Z,977.28
2022-09-03T14:09:21.537Z,977.4
2022-09-03T14:14:53.198Z,976.6
2022-09-03T14:20:24.905Z,977.0
2022-09-03T14:25:56.614Z,977.43
2022-09-03T14:31:28.839Z,976.57
2022-09-03T14:37:00.103Z,977.01
2022-09-03T14:42:31.777Z,977.66
2022-09-03T14:48:03.474Z,977.19
2022-09-03T14:53:35.264Z,978.13
2022-09-03T14:59:11.395Z,978.45
2022-09-03T15:04:43.066Z,978.55
2022-09-03T15:10:14.778Z,978.71
2022-09-03T15:15:47.016Z,978.53
2022-09-03T15:21:18.226Z,979.11
2022-09-03T15:26:49.949Z,978.78
2022-09-03T15:32:21.729Z,978.46
2022-09-03T15:37:53.401Z,978.8
2022-09-03T15:43:25.422Z,978.62
2022-09-03T15:48:56.865Z,978.74
2022-09-03T15:54:28.554Z,979.02
2022-09-03T16:00:04.690Z,978.4
2022-09-03T16:05:36.590Z,978.39
2022-09-03T16:11:08.235Z,978.58
2022-09-03T16:16:40.096Z,978.58
2022-09-03T16:22:11.587Z,978.38
2022-09-03T16:27:43.418Z,978.42
2022-09-03T16:33:14.995Z,978.44
2022-09-03T16:38:46.741Z,978.34
2022-09-03T16:44:18.550Z,978.4
2022-09-03T16:49:50.182Z,978.53
2022-09-03T16:55:21.886Z,978.51
2022-09-03T17:00:58.290Z,976.95
2022-09-03T17:06:29.697Z,978.36
2022-09-03T17:12:01.450Z,978.44
2022-09-03T17:17:33.230Z,978.31
2022-09-03T17:23:04.879Z,978.17
2022-09-03T17:28:36.562Z,978.29
2022-09-03T17:34:08.451Z,978.37
2022-09-03T17:39:40.286Z,978.33
2022-09-03T17:45:11.826Z,978.15
2022-09-03T17:50:43.577Z,978.22
2022-09-03T17:56:19.177Z,978.11
2022-09-03T18:01:53.783Z,978.1
2022-09-03T18:07:23.137Z,978.31
2022-09-03T18:13:04.686Z,978.19
2022-09-03T18:18:26.501Z,978.07
2022-09-03T18:23:58.272Z,978.07
2022-09-03T18:24:51.805Z,978.08
2022-09-03T18:30:17.686Z,978.23
2022-09-03T18:35:49.337Z,978.3
2022-09-03T18:41:21.081Z,978.23
2022-09-03T18:48:07.010Z,978.35
2022-09-03T18:52:24.558Z,978.31
2022-09-03T18:57:56.298Z,978.41
2022-09-03T19:03:27.997Z,978.56
2022-09-03T19:08:59.765Z,978.46
2022-09-03T19:14:31.471Z,978.54
2022-09-03T19:20:03.312Z,978.66
2022-09-03T19:25:39.265Z,978.68
2022-09-03T19:31:11.100Z,978.74
2022-09-03T19:36:42.745Z,978.81
2022-09-03T19:42:14.810Z,978.86
2022-09-03T19:47:46.233Z,978.81
2022-09-03T19:53:18.025Z,978.82
2022-09-03T19:58:49.588Z,978.77
2022-09-03T20:04:21.310Z,978.63
2022-09-03T20:09:53.129Z,978.64
2022-09-03T20:15:25.019Z,978.65
2022-09-03T20:20:56.509Z,978.63
2022-09-03T20:26:32.881Z,978.57
2022-09-03T20:32:04.436Z,978.61
2022-09-03T20:37:36.152Z,978.62
2022-09-03T20:43:07.885Z,978.77
2022-09-03T20:48:39.534Z,978.96
2022-09-03T20:54:11.249Z,979.11
2022-09-03T20:59:42.971Z,979.29
2022-09-03T21:05:14.763Z,979.24
2022-09-03T21:10:46.429Z,979.38
2022-09-03T21:16:18.349Z,979.21
2022-09-03T21:21:49.934Z,979.05
2022-09-03T21:27:26.074Z,979.51
2022-09-03T21:32:57.751Z,979.79
2022-09-03T21:38:29.473Z,979.9
2022-09-03T21:44:01.243Z,979.97
2022-09-03T21:49:33.418Z,979.97
2022-09-03T21:55:04.747Z,980.32
2022-09-03T22:00:36.344Z,980.32
2022-09-03T22:06:08.027Z,980.23
2022-09-03T22:11:39.790Z,980.0
2022-09-03T22:17:11.493Z,980.56
2022-09-03T22:22:43.228Z,980.69
2022-09-03T22:28:19.354Z,980.68
2022-09-03T22:33:51.073Z,980.26
2022-09-03T22:39:22.946Z,980.78
2022-09-03T22:44:54.506Z,980.88
2022-09-03T22:50:26.243Z,981.0
2022-09-03T22:55:57.898Z,980.9
2022-09-03T23:01:29.865Z,980.97
2022-09-03T23:07:01.531Z,980.97
2022-09-03T23:12:33.167Z,980.93
2022-09-03T23:18:05.213Z,980.85
2022-09-03T23:23:36.613Z,980.79
2022-09-03T23:29:12.679Z,980.72
2022-09-03T23:34:44.478Z,980.55
2022-09-03T23:40:16.233Z,980.59
2022-09-03T23:45:48.074Z,980.56
2022-09-03T23:51:19.597Z,980.44
2022-09-03T23:56:51.245Z,980.49
